Portada
METAR-TAF:

METAR-TAF

Aeroports :

Mendoza, Argentina

latitud: 32-50S, longitud: 068-47W, altitud: 705 m

Observació

L'informe es va fer fa 1 hora i 0 minuts, a les 01:00 UTC
Vent calma
Temperatura 30°C
Humitat 40%
Pressió 1008 hPa
Visibilitat 10 km o més
sense núvols per sota de 1500 mi sense presència de cumulonimbus.

METAR: SAME 160100Z 00000KT CAVOK 30/15 Q1008

Hora: 23:00 (02:00 UTC)

Pronòstic

L'informe es va fer fa 9 hores i 0 minuts, a les 17:00 UTC
Pronòstic vàlid del 15 a les 18 UTC al 16 a les 18 UTC
Vent 10 kt del Sud-Est
Visibilitat 10 km o més
Escasses núvols a una alçada de 4000 ft
Evolucionant progressivament
l' 16 a les 08 UTC al 16 a les 10 UTC
Vent 20 kt del Sud/Sud-Est
Evolucionant progressivament
l' 16 a les 14 UTC al 16 a les 16 UTC
Vent 10 kt del Sud/Sud-Est
Visibilitat 10 km o més
sense núvols per sota de 1500 mi sense presència de cumulonimbus.

TAF: SAME 151700Z 1518/1618 14010KT 9999 FEW040 TX35/1520Z TN21/1610Z BECMG 1608/1610 16020KT BECMG 1614/1616 16010KT CAVOK

Observacions i pronòstics meteorològics de més de 4000 aeroports (METAR i TAF).

Les estacions disponibles són els punts grocs i vermells al mapa.

Posi el ratolí al punt desitjat per veure el nom de l'estació.

Feu clic per veure les observacions i els pronòstics meteorològics.

Per canviar el mapa: feu clic els botons verds amb una creu de color negre per apropar; al botó verd amb un guió per allunyar la imatge; o en les fletxes verdes per a mapes adjacents.


METAR-TAF: